Latest Weather Observations for Mackay Airport

IDQ60801

Issued at 7:02 pm EST Sunday 25 August 2019 (issued every 10 minutes, with the page automatically refreshed every 10 minutes)

About weather observations | Map of weather stations | Latest weather observations for QLD | Other Formats
Station Details ID: 033045 Name: MACKAY AERO Lat: -21.17 Lon: 149.18 Height: 4.7 m
Data from the previous 72 hours. | See also: Recent months at Mackay Airport
Date/Time
EST
Temp
°C
App
Temp
°C
Dew
Point
°C
Rel
Hum
%
Delta-T
°C
Wind Press
QNH
hPa
Press
MSL
hPa
Rain since
9am
mm
Dir  Spd
km/h
Gust
km/h
Spd
kts
Gust
kts
25/07:00pm 19.2 19.1 15.9 81 2.0 ESE 11 13 6 7 1018.0 1018.0 0.0
25/06:30pm 19.5 19.1 16.2 81 2.0 ESE 13 17 7 9 1017.9 1017.9 0.0
25/06:00pm 19.8 19.0 16.1 79 2.2 E 15 20 8 11 1017.4 1017.4 0.0
25/05:30pm 20.5 18.9 15.9 75 2.7 E 19 22 10 12 1017.2 1017.2 0.0
25/05:00pm 21.3 19.6 16.3 73 3.0 ESE 20 24 11 13 1017.1 1017.1 0.0
25/04:30pm 21.6 19.8 16.1 71 3.3 ESE 20 24 11 13 1016.8 1016.8 0.0
25/04:00pm 21.8 20.2 16.5 72 3.2 ESE 20 26 11 14 1016.9 1016.9 0.0
25/03:30pm 22.0 20.3 16.3 70 3.4 ESE 20 28 11 15 1016.9 1016.9 0.0
25/03:00pm 23.0 21.1 16.8 68 3.8 E 22 28 12 15 1016.8 1016.8 0.0
25/02:30pm 22.6 20.9 17.3 72 3.3 ESE 22 30 12 16 1017.0 1017.0 0.0
25/02:00pm 22.5 20.3 16.8 70 3.5 ESE 24 30 13 16 1017.2 1017.2 0.0
25/01:30pm 22.5 20.7 17.0 71 3.4 ESE 22 30 12 16 1017.6 1017.6 0.0
25/01:00pm 22.4 20.1 16.7 70 3.5 ESE 24 28 13 15 1018.1 1018.1 0.0
25/12:30pm 22.9 20.8 17.1 70 3.6 ESE 24 30 13 16 1018.5 1018.5 0.0
25/12:00pm 22.5 20.3 16.8 70 3.5 SE 24 30 13 16 1019.2 1019.2 0.0
25/11:30am 22.0 19.4 15.8 68 3.7 ESE 24 28 13 15 1019.6 1019.6 0.0
25/11:00am 22.4 20.5 16.7 70 3.5 SE 22 28 12 15 1019.8 1019.8 0.0
25/10:30am 22.2 20.3 16.7 71 3.4 SE 22 28 12 15 1020.1 1020.1 0.0
25/10:00am 22.3 21.2 17.2 73 3.1 SE 19 24 10 13 1020.2 1020.2 0.0
25/09:30am 21.9 21.3 16.6 72 3.2 SE 15 20 8 11 1020.4 1020.4 0.0
25/09:00am 20.9 20.5 16.3 75 2.8 SSE 13 17 7 9 1020.5 1020.5 0.2
25/08:30am 19.5 19.9 16.3 82 1.9 SSW 9 13 5 7 1020.7 1020.7 0.2
25/08:00am 17.4 17.5 15.6 89 1.1 SW 9 13 5 7 1020.6 1020.6 0.2
25/07:30am 16.0 15.9 15.0 94 0.6 WSW 9 11 5 6 1020.4 1020.4 0.2
25/07:00am 14.2 13.9 13.2 94 0.6 SW 7 9 4 5 1020.1 1020.1 0.2
25/06:30am 14.1 13.7 13.1 94 0.6 W 7 9 4 5 1019.9 1019.9 0.2
25/06:00am 13.8 12.9 12.7 93 0.6 WSW 9 11 5 6 1019.5 1019.5 0.2
25/05:30am 14.4 13.6 13.0 91 0.8 SW 9 11 5 6 1019.3 1019.3 0.2
25/05:00am 15.9 15.9 14.1 89 1.0 W 7 9 4 5 1019.1 1019.1 0.2
25/04:30am 16.2 16.4 14.6 90 0.9 W 7 9 4 5 1019.0 1019.0 0.2
25/04:00am 15.5 15.0 13.7 89 1.0 WSW 9 11 5 6 1018.8 1018.8 0.2
25/03:30am 16.3 15.7 14.7 90 0.9 SSW 11 13 6 7 1018.9 1018.9 0.2
25/03:00am 16.0 15.6 14.2 89 1.0 SW 9 13 5 7 1019.2 1019.2 0.2
25/02:30am 16.0 15.0 14.5 91 0.9 WSW 13 15 7 8 1019.4 1019.4 0.2
25/02:00am 15.3 14.6 14.2 93 0.6 WSW 11 13 6 7 1019.5 1019.5 0.2
25/01:30am 14.8 14.1 13.3 91 0.8 SW 9 11 5 6 1019.8 1019.8 0.2
25/01:00am 15.2 14.2 13.4 89 1.0 WSW 11 13 6 7 1020.0 1020.0 0.2
25/12:30am 15.6 15.3 13.4 87 1.2 WSW 7 9 4 5 1020.3 1020.3 0.2
25/12:00am 16.6 15.9 13.1 80 1.9 SW 9 13 5 7 1020.6 1020.6 0.2
 
Date/Time
EST
Temp
°C
App
Temp
°C
Dew
Point
°C
Rel
Hum
%
Delta-T
°C
Wind Press
QNH
hPa
Press
MSL
hPa
Rain since
9am
mm
Dir  Spd
km/h
Gust
km/h
Spd
kts
Gust
kts
24/11:30pm 19.1 17.7 15.6 80 2.1 ESE 17 24 9 13 1020.6 1020.6 0.2
24/11:00pm 19.2 17.2 14.9 76 2.5 ESE 19 22 10 12 1020.5 1020.5 0.2
24/10:30pm 19.5 18.4 15.2 76 2.5 ESE 15 20 8 11 1020.6 1020.6 0.2
24/10:00pm 19.5 17.4 15.2 76 2.5 ESE 20 26 11 14 1020.6 1020.6 0.2
24/09:30pm 19.6 17.5 15.3 76 2.5 ESE 20 26 11 14 1020.7 1020.7 0.2
24/09:00pm 19.3 17.2 14.6 74 2.7 ESE 19 24 10 13 1020.7 1020.7 0.2
24/08:30pm 19.4 17.4 14.9 75 2.6 ESE 19 24 10 13 1020.7 1020.7 0.2
24/08:00pm 19.4 17.4 14.9 75 2.6 SE 19 22 10 12 1020.6 1020.6 0.2
24/07:30pm 19.4 17.8 15.1 76 2.5 SE 17 20 9 11 1020.5 1020.5 0.2
24/07:00pm 19.4 17.7 14.6 74 2.8 ESE 17 20 9 11 1020.4 1020.4 0.2
24/06:30pm 19.7 17.5 14.9 74 2.8 ESE 20 24 11 13 1020.1 1020.1 0.2
24/06:00pm 20.2 18.1 14.6 70 3.3 ESE 19 22 10 12 1020.2 1020.2 0.2
24/05:30pm 20.6 18.5 14.7 69 3.5 ESE 19 22 10 12 1020.0 1020.0 0.2
24/05:00pm 20.9 18.7 14.8 68 3.6 ESE 20 24 11 13 1019.9 1019.9 0.2
24/04:30pm 21.1 18.7 14.5 66 3.9 ESE 20 24 11 13 1019.7 1019.7 0.2
24/04:00pm 21.5 18.8 14.6 65 4.0 ESE 22 28 12 15 1019.3 1019.3 0.2
24/03:30pm 22.5 19.5 15.8 66 4.0 ESE 26 33 14 18 1019.1 1019.1 0.2
24/03:00pm 22.7 19.6 15.5 64 4.3 ESE 26 32 14 17 1019.2 1019.2 0.2
24/02:30pm 22.0 19.4 15.8 68 3.7 SE 24 30 13 16 1019.7 1019.7 0.2
24/02:00pm 22.1 19.4 15.7 67 3.8 ESE 24 32 13 17 1020.1 1020.1 0.2
24/01:30pm 22.0 18.9 15.6 67 3.8 SE 26 33 14 18 1020.4 1020.4 0.2
24/01:00pm 23.0 20.6 16.3 66 4.1 SE 24 33 13 18 1020.6 1020.6 0.0
24/12:30pm 22.5 19.3 16.3 68 3.8 SE 28 33 15 18 1021.1 1021.1 0.0
24/12:00pm 21.6 19.7 15.7 69 3.5 SE 20 30 11 16 1021.6 1021.6 0.0
24/11:30am 22.0 18.3 15.1 65 4.1 ESE 28 37 15 20 1022.0 1022.0 0.0
24/11:00am 22.7 18.6 14.8 61 4.7 ESE 30 37 16 20 1022.2 1022.2 0.0
24/10:30am 22.4 19.0 15.7 66 4.0 ESE 28 33 15 18 1022.8 1022.8 0.0
24/10:00am 21.5 17.9 15.3 68 3.7 ESE 28 33 15 18 1022.9 1022.9 0.0
24/09:30am 21.0 17.0 15.1 69 3.5 ESE 30 37 16 20 1022.9 1022.9 0.0
24/09:00am 21.6 17.2 14.0 62 4.4 ESE 30 37 16 20 1022.8 1022.8 0.0
24/08:30am 21.5 17.4 13.9 62 4.4 ESE 28 37 15 20 1022.6 1022.6 0.0
24/08:00am 21.7 17.9 14.8 65 4.1 ESE 28 35 15 19 1022.4 1022.4 0.0
24/07:30am 20.4 16.1 14.3 68 3.5 ESE 30 37 16 20 1021.9 1021.9 0.0
24/07:00am 20.2 16.6 15.2 73 2.9 ESE 28 33 15 18 1021.7 1021.7 0.0
24/06:30am 19.9 17.1 15.3 75 2.7 ESE 24 32 13 17 1021.4 1021.4 0.0
24/06:00am 19.9 16.4 15.5 76 2.6 ESE 28 33 15 18 1021.1 1021.1 0.0
24/05:30am 19.8 16.9 15.0 74 2.8 ESE 24 32 13 17 1020.8 1020.8 0.0
24/05:00am 19.8 17.1 15.7 77 2.4 SE 24 30 13 16 1020.5 1020.5 0.0
24/04:30am 19.8 17.1 15.7 77 2.4 SE 24 35 13 19 1020.2 1020.2 0.0
24/04:00am 19.4 16.0 15.9 80 2.1 SE 28 35 15 19 1020.0 1020.0 0.0
24/03:30am 19.7 17.3 16.5 82 1.9 ESE 24 32 13 17 1020.0 1020.0 0.0
24/03:00am 19.9 17.0 16.0 78 2.3 ESE 26 32 14 17 1020.1 1020.1 0.0
24/02:30am 20.3 16.6 15.9 76 2.6 ESE 30 37 16 20 1020.2 1020.2 0.0
24/02:00am 20.3 17.1 16.3 78 2.4 ESE 28 37 15 20 1020.3 1020.3 0.0
24/01:30am 20.2 17.3 16.2 78 2.4 ESE 26 33 14 18 1020.4 1020.4 0.0
24/01:00am 20.3 17.6 16.7 80 2.2 ESE 26 32 14 17 1020.8 1020.8 0.0
24/12:30am 20.0 17.4 16.0 78 2.4 ESE 24 32 13 17 1020.9 1020.9 0.0
24/12:00am 20.0 17.7 16.6 81 2.0 ESE 24 35 13 19 1021.0 1021.0 0.0
 
Date/Time
EST
Temp
°C
App
Temp
°C
Dew
Point
°C
Rel
Hum
%
Delta-T
°C
Wind Press
QNH
hPa
Press
MSL
hPa
Rain since
9am
mm
Dir  Spd
km/h
Gust
km/h
Spd
kts
Gust
kts
23/11:30pm 20.0 16.9 16.6 81 2.1 SE 28 35 15 19 1021.1 1021.1 0.0
23/11:00pm 19.7 17.1 16.9 84 1.7 SE 26 33 14 18 1021.2 1021.2 0.0
23/10:30pm 20.0 16.7 17.0 83 1.8 SE 30 39 16 21 1021.4 1021.4 0.0
23/10:00pm 20.0 17.7 17.6 86 1.5 ESE 26 32 14 17 1021.7 1021.7 0.0
23/09:30pm 19.3 19.1 17.6 90 1.0 ESE 15 20 8 11 1021.6 1021.6 0.0
23/09:00pm 17.8 18.0 15.8 88 1.2 SSW 9 11 5 6 1021.6 1021.6 0.0
23/08:30pm 17.0 16.7 14.3 84 1.5 SSW 9 11 5 6 1021.5 1021.5 0.0
23/08:00pm 17.6 17.4 14.7 83 1.7 SSE 9 9 5 5 1021.5 1021.5 0.0
23/07:30pm 18.4 19.0 15.3 82 1.8 SSE 6 7 3 4 1021.4 1021.4 0.0
23/07:00pm 18.4 19.0 15.3 82 1.8 SE 6 7 3 4 1021.1 1021.1 0.0
23/06:30pm 18.9 19.4 15.6 81 1.9 SE 7 7 4 4 1020.9 1020.9 0.0
23/06:00pm 18.8 18.7 14.9 78 2.3 SE 9 11 5 6 1020.8 1020.8 0.0
23/05:30pm 19.8 18.9 14.8 73 2.9 SE 13 17 7 9 1020.5 1020.5 0.0
23/05:00pm 20.7 19.3 14.6 68 3.6 SE 15 19 8 10 1020.4 1020.4 0.0
23/04:30pm 21.3 18.8 14.0 63 4.2 SE 20 24 11 13 1020.1 1020.1 0.0
23/04:00pm 21.5 18.4 13.4 60 4.6 SE 22 26 12 14 1019.8 1019.8 0.0
23/03:30pm 21.8 18.4 12.6 56 5.2 SE 22 28 12 15 1019.6 1019.6 0.0
23/03:00pm 21.8 18.2 11.8 53 5.6 SE 22 30 12 16 1019.4 1019.4 0.0
23/02:30pm 22.0 17.9 11.4 51 5.9 SE 24 30 13 16 1019.4 1019.4 0.0
23/02:00pm 22.2 18.1 11.3 50 6.0 SE 24 32 13 17 1019.6 1019.6 0.0
23/01:30pm 22.5 17.7 10.3 46 6.7 SE 26 33 14 18 1019.7 1019.7 0.0
23/01:00pm 22.6 16.9 9.7 44 7.0 SE 30 37 16 20 1020.0 1020.0 0.0
23/12:30pm 22.8 16.2 8.5 40 7.6 SE 33 41 18 22 1020.1 1020.1 0.0
23/12:00pm 22.8 15.7 8.1 39 7.7 SE 35 43 19 23 1020.2 1020.2 0.0
23/11:30am 23.0 15.5 6.3 34 8.5 SE 35 46 19 25 1020.4 1020.4 0.0
23/11:00am 23.0 15.3 5.4 32 8.8 SE 35 43 19 23 1020.7 1020.7 0.0
23/10:30am 22.9 15.8 5.3 32 8.8 SE 32 41 17 22 1020.8 1020.8 0.0
23/10:00am 22.6 17.0 5.5 33 8.5 SSE 24 32 13 17 1021.0 1021.0 0.0
23/09:30am 21.5 15.1 5.0 34 8.1 SSE 28 35 15 19 1020.9 1020.9 0.0
23/09:00am 20.8 16.3 6.0 38 7.4 S 19 28 10 15 1020.9 1020.9 0.0
23/08:30am 18.0 15.0 7.7 51 5.2 SSW 13 17 7 9 1020.6 1020.6 0.0
23/08:00am 15.2 13.2 7.0 58 4.0 SW 7 11 4 6 1020.5 1020.5 0.0
23/07:30am 11.9 9.8 8.4 79 1.7 WSW 9 11 5 6 1020.3 1020.3 0.0
23/07:00am 8.3 6.0 5.6 83 1.2 W 7 9 4 5 1020.1 1020.1 0.0
23/06:30am 6.7 4.2 3.9 82 1.2 W 6 9 3 5 1019.7 1019.7 0.0
23/06:00am 7.6 4.7 4.4 80 1.4 WNW 9 11 5 6 1019.2 1019.2 0.0
23/05:30am 9.8 6.8 4.0 67 2.6 S 9 13 5 7 1018.7 1018.7 0.0
23/05:00am 11.9 8.2 4.6 61 3.3 SSE 13 17 7 9 1018.4 1018.4 0.0
23/04:30am 9.7 6.4 6.2 79 1.6 SSE 13 19 7 10 1018.1 1018.1 0.0
23/04:00am 7.4 5.1 5.7 89 0.8 WSW 7 11 4 6 1018.0 1018.0 0.0
23/03:30am 8.0 5.4 6.3 89 0.8 W 9 11 5 6 1017.8 1017.8 0.0
23/03:00am 7.7 4.4 6.2 90 0.7 SW 13 15 7 8 1017.5 1017.5 0.0
23/02:30am 8.1 5.5 6.1 87 0.9 WSW 9 13 5 7 1017.6 1017.6 0.0
23/02:00am 9.5 7.4 6.8 83 1.3 W 7 11 4 6 1017.7 1017.7 0.0
23/01:30am 9.7 6.0 6.4 80 1.5 WSW 15 17 8 9 1017.9 1017.9 0.0
23/01:00am 10.5 8.3 7.7 83 1.3 WNW 9 15 5 8 1018.1 1018.1 0.0
23/12:30am 11.8 9.1 9.0 83 1.4 W 13 17 7 9 1018.1 1018.1 0.0
23/12:00am 10.7 8.1 7.9 83 1.4 W 11 15 6 8 1018.2 1018.2 0.0
 
Date/Time
EST
Temp
°C
App
Temp
°C
Dew
Point
°C
Rel
Hum
%
Delta-T
°C
Wind Press
QNH
hPa
Press
MSL
hPa
Rain since
9am
mm
Dir  Spd
km/h
Gust
km/h
Spd
kts
Gust
kts
22/11:30pm 12.1 9.6 9.8 86 1.2 W 13 15 7 8 1018.2 1018.2 0.0
22/11:00pm 11.2 9.3 9.1 87 1.0 NW 9 11 5 6 1018.4 1018.4 0.0
22/10:30pm 10.1 7.7 7.0 81 1.5 W 9 13 5 7 1018.3 1018.3 0.0
22/10:00pm 11.3 10.7 8.9 85 1.2 WNW 2 7 1 4 1018.3 1018.3 0.0
22/09:30pm 11.5 9.1 8.7 83 1.4 WSW 11 13 6 7 1018.2 1018.2 0.0
22/09:00pm 12.2 10.8 9.0 81 1.6 WNW 6 6 3 3 1018.1 1018.1 0.0
22/08:30pm 13.0 11.6 9.6 80 1.7 WNW 7 11 4 6 1018.0 1018.0 0.0
22/08:00pm 13.5 12.3 9.4 76 2.1 WNW 6 7 3 4 1017.9 1017.9 0.0
22/07:30pm 15.1 13.4 9.7 70 2.8 NW 9 9 5 5 1017.4 1017.4 0.0

Other formats

Comma delimited format used in spreadsheet applications
http://www.bom.gov.au/fwo/IDQ60801/IDQ60801.95367.axf

JavaScript Object Notation format (JSON) in row-major order
http://www.bom.gov.au/fwo/IDQ60801/IDQ60801.95367.json

Data quality

Most of these data are generated automatically and are frequently updated. Quality checks on data are not normally performed. It is possible for incorrect values to appear. Refer to information at About Latest Weather Observations and please check the disclaimer before using these data.